La Grange Highlands, Illinois
Current Conditions -  °F | °C
As of 1:53 AM on Sunday 26 Oct 2014 (Local Time) from KMDW Reporting Station
Clear Clear  
Wind Chill: 52°   Ceiling: Unl
Heat Index: 52°   Visibility: 10mi
Dew Point: 30°   Wind: 7mph
Humidity: 43%   Direction: 300°WNW
Pressure: 29.99"   Gusts: NA
Location:  41.7814°N, 87.8717°W
Report Text: KMDW 260653Z 30006KT 10SM CLR 11/M01 A2999 RMK AO2 SLP151 T01111011
Loading
Personal Weather Stations






























Interactive Weather Map
Tropical Storm Tracking
New forecast layout! Learn more

10-Day Weather Forecast

Advertisements
Track Severe Weather on mobile